Aviation Digital Data Service (ADDS)

Output produced by METARs form (1901 UTC 22 August 2017)
found at http://aviationweather.gov/adds/metars/
 
KLCH 221722Z 2218/2318 VRB05KT P6SM VCTS SCT035CB BKN200 
     TEMPO 2218/2222 4SM -TSRA BKN035CB 
     FM230000 VRB05KT P6SM SCT250